createdAt,value
2022-08-19T00:02:05.950Z,82.25
2022-08-19T00:07:08.386Z,82.86
2022-08-19T00:12:11.943Z,83.98
2022-08-19T00:17:14.170Z,84.69
2022-08-19T00:22:16.302Z,84.57
2022-08-19T00:27:25.060Z,85.04
2022-08-19T00:32:28.622Z,85.40
2022-08-19T00:37:32.027Z,85.60
2022-08-19T00:42:35.614Z,85.61
2022-08-19T00:47:37.679Z,85.85
2022-08-19T00:52:43.815Z,85.94
2022-08-19T00:57:56.224Z,86.10
2022-08-19T01:02:58.722Z,86.70
2022-08-19T01:08:03.287Z,87.00
2022-08-19T01:13:06.745Z,87.75
2022-08-19T01:18:12.351Z,88.49
2022-08-19T01:23:17.282Z,88.37
2022-08-19T01:28:33.624Z,89.21
2022-08-19T01:33:42.159Z,89.01
2022-08-19T01:38:46.239Z,88.81
2022-08-19T01:44:09.789Z,89.45
2022-08-19T01:49:11.320Z,89.80
2022-08-19T01:54:23.450Z,90.67
2022-08-19T01:59:32.286Z,91.89
2022-08-19T02:04:34.779Z,93.13
2022-08-19T02:09:39.234Z,92.84
2022-08-19T02:14:41.841Z,93.78
2022-08-19T02:19:44.029Z,93.40
2022-08-19T02:24:47.106Z,93.75
2022-08-19T02:29:50.900Z,93.55
2022-08-19T02:34:52.999Z,93.59
2022-08-19T02:39:56.655Z,93.70
2022-08-19T02:44:58.526Z,93.48
2022-08-19T02:50:02.807Z,93.81
2022-08-19T02:55:08.026Z,93.93
2022-08-19T03:00:10.987Z,93.74
2022-08-19T03:05:12.996Z,93.32
2022-08-19T03:10:16.708Z,93.61
2022-08-19T03:15:20.146Z,93.30
2022-08-19T03:20:21.884Z,93.88
2022-08-19T03:25:25.495Z,93.71
2022-08-19T03:30:27.243Z,93.62
2022-08-19T03:35:29.533Z,93.17
2022-08-19T03:40:33.604Z,93.31
2022-08-19T03:45:35.808Z,93.60
2022-08-19T03:50:40.197Z,93.32
2022-08-19T03:55:43.867Z,93.97
2022-08-19T04:00:45.652Z,94.13
2022-08-19T04:05:48.162Z,94.09
2022-08-19T04:10:51.588Z,93.94
2022-08-19T04:15:54.196Z,94.25
2022-08-19T04:20:56.313Z,93.88
2022-08-19T04:25:59.698Z,94.37
2022-08-19T04:31:01.379Z,94.15
2022-08-19T04:36:03.431Z,94.14
2022-08-19T04:41:06.811Z,94.14
2022-08-19T04:46:10.024Z,93.45
2022-08-19T04:51:14.201Z,92.91
2022-08-19T04:56:18.284Z,92.69
2022-08-19T05:01:22.916Z,92.40
2022-08-19T05:06:25.260Z,91.90
2022-08-19T05:11:31.748Z,90.87
2022-08-19T05:16:33.976Z,89.57
2022-08-19T05:21:37.239Z,89.93
2022-08-19T05:26:42.939Z,89.70
2022-08-19T05:31:46.116Z,85.14
2022-08-19T05:36:48.843Z,83.77
2022-08-19T05:41:55.402Z,83.76
2022-08-19T05:46:57.468Z,85.15
2022-08-19T05:51:59.391Z,85.00
2022-08-19T05:57:03.633Z,85.30
2022-08-19T06:02:07.128Z,86.69
2022-08-19T06:07:12.683Z,86.19
2022-08-19T06:12:15.961Z,83.59
2022-08-19T06:17:20.858Z,84.36
2022-08-19T06:22:23.633Z,83.06
2022-08-19T06:27:27.073Z,81.73
2022-08-19T06:32:28.792Z,81.59
2022-08-19T06:37:31.129Z,81.36
2022-08-19T06:42:34.494Z,80.86
2022-08-19T06:47:36.645Z,81.34
2022-08-19T06:52:38.715Z,81.52
2022-08-19T06:57:42.547Z,80.13
2022-08-19T07:02:49.758Z,81.63
2022-08-19T07:08:04.577Z,80.86
2022-08-19T07:13:07.995Z,79.09
2022-08-19T07:18:11.528Z,79.63
2022-08-19T07:23:16.029Z,80.84
2022-08-19T07:28:24.276Z,80.64
2022-08-19T07:33:27.834Z,78.88
2022-08-19T07:38:29.805Z,79.55
2022-08-19T07:43:34.890Z,78.65
2022-08-19T07:48:37.869Z,78.38
2022-08-19T07:53:40.157Z,78.34
2022-08-19T07:58:46.286Z,79.11
2022-08-19T08:03:49.131Z,77.96
2022-08-19T08:08:51.146Z,78.04
2022-08-19T08:14:00.760Z,76.21
2022-08-19T08:19:14.829Z,76.76
2022-08-19T08:24:29.205Z,77.16
2022-08-19T08:29:35.380Z,77.02
2022-08-19T08:34:37.462Z,77.94
2022-08-19T08:39:39.561Z,77.98
2022-08-19T08:50:04.715Z,77.85
2022-08-19T08:55:11.608Z,78.13
2022-08-19T09:00:19.187Z,77.12
2022-08-19T09:05:25.825Z,77.06
2022-08-19T09:10:33.113Z,77.47
2022-08-19T09:15:44.615Z,76.82
2022-08-19T09:20:47.754Z,75.62
2022-08-19T09:25:50.035Z,77.32
2022-08-19T09:30:53.916Z,77.60
2022-08-19T09:36:04.308Z,78.54
2022-08-19T09:41:14.526Z,78.60
2022-08-19T09:46:20.858Z,78.55
2022-08-19T09:51:27.651Z,80.50
2022-08-19T09:56:31.287Z,80.96
2022-08-19T10:01:37.675Z,81.04
2022-08-19T10:06:46.381Z,80.71
2022-08-19T10:11:54.665Z,81.15
2022-08-19T10:16:59.452Z,81.99
2022-08-19T10:22:04.536Z,80.85
2022-08-19T10:27:06.707Z,81.46
2022-08-19T10:32:12.216Z,81.66
2022-08-19T10:37:23.906Z,80.67
2022-08-19T10:42:32.110Z,79.27
2022-08-19T10:47:35.725Z,80.25
2022-08-19T10:52:39.064Z,80.63
2022-08-19T10:58:01.327Z,81.38
2022-08-19T11:03:04.262Z,82.30
2022-08-19T11:08:07.224Z,83.15
2022-08-19T11:13:25.356Z,82.73
2022-08-19T11:18:28.671Z,82.00
2022-08-19T11:23:30.773Z,82.44
2022-08-19T11:28:32.884Z,82.00
2022-08-19T11:33:36.401Z,82.11
2022-08-19T11:38:38.755Z,80.76
2022-08-19T11:43:40.816Z,80.33
2022-08-19T11:48:44.726Z,81.28
2022-08-19T11:53:47.362Z,80.94
2022-08-19T11:58:49.994Z,80.57
2022-08-19T12:03:56.122Z,82.00
2022-08-19T12:08:59.881Z,81.38
2022-08-19T12:14:03.335Z,81.64
2022-08-19T12:19:06.964Z,82.09
2022-08-19T12:24:08.942Z,82.81
2022-08-19T12:29:10.643Z,81.54
2022-08-19T12:34:14.236Z,81.05
2022-08-19T12:39:16.011Z,79.84
2022-08-19T12:44:18.540Z,80.27
2022-08-19T12:49:51.990Z,80.54
2022-08-19T12:54:45.548Z,80.41
2022-08-19T12:59:47.534Z,81.32
2022-08-19T13:04:50.965Z,81.60
2022-08-19T13:09:53.111Z,81.22
2022-08-19T13:14:56.036Z,81.29
2022-08-19T13:19:59.299Z,81.88
2022-08-19T13:25:00.982Z,81.32
2022-08-19T13:30:04.377Z,82.35
2022-08-19T13:35:08.221Z,81.22
2022-08-19T13:40:14.815Z,81.04
2022-08-19T13:45:19.462Z,81.50
2022-08-19T13:50:25.127Z,82.07
2022-08-19T13:55:28.010Z,81.64
2022-08-19T14:00:33.096Z,80.67
2022-08-19T14:05:38.162Z,80.88
2022-08-19T14:10:40.644Z,82.58
2022-08-19T14:15:42.365Z,82.35
2022-08-19T14:20:46.057Z,82.15
2022-08-19T14:25:47.770Z,82.23
2022-08-19T14:30:49.473Z,82.56
2022-08-19T14:35:59.692Z,81.71
2022-08-19T14:41:14.470Z,81.86
2022-08-19T14:46:19.069Z,82.54
2022-08-19T14:51:26.034Z,82.91
2022-08-19T14:56:30.046Z,82.37
2022-08-19T15:01:31.928Z,82.43
2022-08-19T15:06:35.251Z,82.05
2022-08-19T15:11:37.606Z,82.74
2022-08-19T15:16:39.307Z,82.24
2022-08-19T15:21:42.397Z,82.80
2022-08-19T15:26:44.150Z,83.21
2022-08-19T15:31:46.172Z,83.03
2022-08-19T15:36:52.690Z,83.09
2022-08-19T15:41:54.788Z,83.26
2022-08-19T15:46:56.936Z,84.12
2022-08-19T15:52:00.554Z,83.98
2022-08-19T15:57:02.213Z,83.96
2022-08-19T16:02:04.213Z,83.83
2022-08-19T16:07:07.652Z,84.10
2022-08-19T16:12:09.683Z,83.79
2022-08-19T16:17:13.474Z,83.24
2022-08-19T16:22:17.561Z,82.33
2022-08-19T16:27:19.351Z,82.31
2022-08-19T16:32:21.612Z,82.03
2022-08-19T16:37:24.999Z,82.30
2022-08-19T16:42:26.805Z,82.76
2022-08-19T16:47:28.681Z,83.17
2022-08-19T16:52:32.368Z,84.31
2022-08-19T16:57:34.358Z,83.74
2022-08-19T17:02:36.136Z,84.25
2022-08-19T17:07:40.085Z,84.66
2022-08-19T17:12:41.805Z,84.55
2022-08-19T17:17:43.518Z,84.26
2022-08-19T17:22:47.136Z,83.86
2022-08-19T17:27:49.203Z,83.63
2022-08-19T17:32:51.514Z,83.97
2022-08-19T17:37:54.674Z,84.92
2022-08-19T17:42:56.768Z,84.38
2022-08-19T17:47:58.948Z,84.47
2022-08-19T17:53:02.657Z,85.33
2022-08-19T17:58:05.273Z,87.09
2022-08-19T18:03:10.316Z,88.73
2022-08-19T18:08:15.956Z,89.45
2022-08-19T18:13:18.257Z,90.67
2022-08-19T18:18:20.305Z,91.26
2022-08-19T18:23:45.503Z,91.57
2022-08-19T18:28:49.986Z,92.10
2022-08-19T18:33:51.959Z,92.07
2022-08-19T18:38:55.074Z,92.28
2022-08-19T18:43:56.929Z,92.08
2022-08-19T18:48:58.665Z,91.50
2022-08-19T18:54:02.164Z,91.70
2022-08-19T18:59:04.126Z,91.50
2022-08-19T19:04:09.078Z,91.46
2022-08-19T19:09:15.740Z,90.36
2022-08-19T19:14:45.735Z,90.87
2022-08-19T19:19:44.738Z,91.12
2022-08-19T19:24:47.851Z,91.39
2022-08-19T19:29:52.310Z,91.61
2022-08-19T19:34:54.593Z,91.50
2022-08-19T19:39:57.727Z,91.33
2022-08-19T19:44:59.593Z,91.00
2022-08-19T19:50:14.273Z,91.30
2022-08-19T19:55:18.741Z,91.37
2022-08-19T20:00:21.431Z,91.48
2022-08-19T20:05:23.659Z,91.87
2022-08-19T20:10:27.186Z,91.48
2022-08-19T20:15:29.430Z,90.96
2022-08-19T20:20:31.819Z,90.67
2022-08-19T20:25:37.090Z,91.16
2022-08-19T20:30:44.418Z,91.56
2022-08-19T20:35:48.387Z,91.41
2022-08-19T20:40:51.530Z,90.95
2022-08-19T20:45:54.276Z,91.17
2022-08-19T20:50:56.564Z,91.52
2022-08-19T20:56:00.174Z,90.73
2022-08-19T21:01:03.749Z,91.11
2022-08-19T21:06:05.917Z,91.91
2022-08-19T21:11:09.691Z,92.02
2022-08-19T21:16:11.433Z,92.29
2022-08-19T21:21:13.309Z,92.34
2022-08-19T21:26:16.521Z,92.27
2022-08-19T21:31:18.364Z,92.06
2022-08-19T21:36:20.109Z,92.71
2022-08-19T21:41:23.628Z,92.22
2022-08-19T21:46:26.040Z,91.98
2022-08-19T21:56:49.692Z,91.75
2022-08-19T22:02:01.769Z,91.74
2022-08-19T22:07:13.937Z,91.38
2022-08-19T22:12:22.805Z,91.40
2022-08-19T22:17:25.603Z,91.44
2022-08-19T22:22:30.333Z,91.61
2022-08-19T22:27:33.495Z,91.17
2022-08-19T22:32:35.387Z,91.24
2022-08-19T22:37:37.145Z,91.50
2022-08-19T22:42:40.542Z,91.55
2022-08-19T22:47:42.656Z,91.02
2022-08-19T22:52:51.628Z,91.39
2022-08-19T22:57:56.395Z,90.93
2022-08-19T23:02:58.874Z,91.38
2022-08-19T23:08:00.614Z,91.09
2022-08-19T23:13:03.948Z,90.54
2022-08-19T23:18:06.031Z,90.72
2022-08-19T23:23:10.338Z,90.78
2022-08-19T23:28:13.671Z,91.00
2022-08-19T23:33:17.557Z,90.86
2022-08-19T23:38:19.870Z,90.95
2022-08-19T23:43:25.179Z,90.29
2022-08-19T23:48:28.322Z,90.86
2022-08-19T23:53:30.707Z,91.18
2022-08-19T23:58:35.684Z,91.35
